Time;durP1;ratioP1;P1;durP2;ratioP2;P2;SDS_P1;SDS_P2;PMS_P1;PMS_P2;Temp;Humidity;BMP_temperature;BMP_pressure;BME280_temperature;BME280_humidity;BME280_pressure;Samples;Min_cycle;Max_cycle;Signal;HPM_P1;HPM_P2
2021/10/16 00:00:34;;;;;;;9.45;6.35;;;7.90;99.90;;;;;;2011354;70;22519;-78
2021/10/16 00:03:00;;;;;;;8.73;6.20;;;8.00;99.90;;;;;;2022130;70;21177;-78
2021/10/16 00:05:26;;;;;;;10.45;5.83;;;8.10;99.90;;;;;;2001179;70;21539;-78
2021/10/16 00:07:52;;;;;;;9.05;5.50;;;8.00;99.90;;;;;;2001101;70;21024;-78
2021/10/16 00:10:18;;;;;;;9.65;6.58;;;8.00;99.90;;;;;;2022812;70;21435;-78
2021/10/16 00:12:44;;;;;;;9.68;6.83;;;7.90;99.90;;;;;;2011143;70;21474;-78
2021/10/16 00:15:10;;;;;;;10.20;6.22;;;8.00;99.90;;;;;;2007859;70;21170;-79
2021/10/16 00:17:37;;;;;;;12.20;6.80;;;8.00;99.90;;;;;;1991658;70;21164;-78
2021/10/16 00:20:03;;;;;;;9.53;5.78;;;8.00;99.90;;;;;;1990327;70;21023;-78
2021/10/16 00:22:29;;;;;;;8.18;6.05;;;8.00;99.90;;;;;;2005665;70;21047;-78
2021/10/16 00:24:55;;;;;;;11.38;6.97;;;8.00;99.90;;;;;;2017980;70;21137;-78
2021/10/16 00:27:21;;;;;;;19.40;6.60;;;8.10;99.90;;;;;;2005076;70;21042;-78
2021/10/16 00:29:47;;;;;;;10.68;6.33;;;8.00;99.90;;;;;;2018768;70;21063;-78
2021/10/16 00:32:13;;;;;;;11.28;6.65;;;7.90;99.90;;;;;;1994835;70;21030;-78
2021/10/16 00:34:39;;;;;;;11.95;6.87;;;8.00;99.90;;;;;;1994633;70;21047;-79
2021/10/16 00:37:06;;;;;;;11.57;6.15;;;8.00;99.90;;;;;;2000870;70;21135;-78
2021/10/16 00:39:32;;;;;;;8.50;5.75;;;8.00;99.90;;;;;;2004721;70;21120;-78
2021/10/16 00:41:58;;;;;;;8.00;5.85;;;8.20;99.90;;;;;;2021423;70;21059;-78
2021/10/16 00:44:24;;;;;;;10.28;6.25;;;8.20;99.90;;;;;;2017022;70;21027;-78
2021/10/16 00:46:50;;;;;;;10.80;5.80;;;8.20;99.90;;;;;;1999966;70;21057;-78
2021/10/16 00:49:16;;;;;;;7.47;5.80;;;8.10;99.90;;;;;;1998973;70;21145;-78
2021/10/16 00:51:42;;;;;;;9.60;5.87;;;8.20;99.90;;;;;;2005088;70;21543;-78
2021/10/16 00:54:08;;;;;;;8.65;5.90;;;8.20;99.90;;;;;;2001721;70;21494;-78
2021/10/16 00:56:35;;;;;;;9.23;5.17;;;8.20;99.90;;;;;;2003625;70;21117;-78
2021/10/16 00:59:01;;;;;;;6.65;5.40;;;8.30;99.90;;;;;;2018600;70;21093;-78
2021/10/16 01:01:27;;;;;;;12.55;6.45;;;8.20;99.90;;;;;;2007568;70;21018;-78
2021/10/16 01:03:53;;;;;;;14.50;6.40;;;8.20;99.90;;;;;;2014765;70;21059;-78
2021/10/16 01:06:19;;;;;;;8.05;5.53;;;8.20;99.90;;;;;;2014630;70;21131;-77
2021/10/16 01:08:45;;;;;;;9.23;5.58;;;8.20;99.90;;;;;;1999696;70;21050;-78
2021/10/16 01:11:11;;;;;;;9.58;5.70;;;8.20;99.90;;;;;;2008845;70;21114;-78
2021/10/16 01:13:37;;;;;;;11.18;6.40;;;8.20;99.90;;;;;;2006385;70;21023;-78
2021/10/16 01:16:04;;;;;;;10.38;5.87;;;8.20;99.90;;;;;;2002199;70;21104;-78
2021/10/16 01:18:30;;;;;;;8.95;5.80;;;8.10;99.90;;;;;;1995920;70;21050;-77
2021/10/16 01:20:56;;;;;;;6.97;5.15;;;8.10;99.90;;;;;;2004250;70;21658;-78
2021/10/16 01:23:22;;;;;;;8.68;6.10;;;8.10;99.90;;;;;;2013660;70;21063;-78
2021/10/16 01:25:48;;;;;;;8.25;6.12;;;8.20;99.90;;;;;;1991556;70;21160;-78
2021/10/16 01:28:15;;;;;;;10.75;6.12;;;8.20;99.90;;;;;;1989937;70;21126;-78
2021/10/16 01:30:41;;;;;;;9.83;6.45;;;8.20;99.90;;;;;;1984660;70;21537;-77
2021/10/16 01:33:07;;;;;;;9.53;5.87;;;8.20;99.90;;;;;;1993917;70;21447;-80
2021/10/16 01:35:33;;;;;;;6.92;6.08;;;8.20;99.90;;;;;;1997323;70;21050;-79
2021/10/16 01:37:59;;;;;;;8.05;6.00;;;8.20;99.90;;;;;;2000756;71;21055;-78
2021/10/16 01:40:26;;;;;;;7.55;6.17;;;8.20;99.90;;;;;;1990886;70;21116;-78
2021/10/16 01:42:53;;;;;;;10.70;5.80;;;8.10;99.90;;;;;;1994001;70;21108;-78
2021/10/16 01:45:19;;;;;;;8.63;5.50;;;8.10;99.90;;;;;;2008303;70;21063;-78
2021/10/16 01:47:45;;;;;;;13.70;6.00;;;8.20;99.90;;;;;;2015135;70;21046;-78
2021/10/16 01:50:11;;;;;;;9.83;6.15;;;8.20;99.90;;;;;;1998555;71;21062;-78
2021/10/16 01:52:37;;;;;;;6.20;5.60;;;8.20;99.90;;;;;;1983223;70;21029;-78
2021/10/16 01:55:04;;;;;;;8.38;6.12;;;8.20;99.90;;;;;;1992969;70;21051;-78
2021/10/16 01:57:30;;;;;;;9.20;5.92;;;8.20;99.90;;;;;;2012543;70;21053;-78
2021/10/16 01:59:56;;;;;;;7.42;5.75;;;8.20;99.90;;;;;;1986390;70;21446;-78
2021/10/16 02:02:22;;;;;;;12.25;6.45;;;8.20;99.90;;;;;;2007997;70;21607;-78
2021/10/16 02:04:48;;;;;;;7.87;5.90;;;8.10;99.90;;;;;;1992073;70;21056;-78
2021/10/16 02:07:14;;;;;;;8.65;5.90;;;8.10;99.90;;;;;;1998406;70;21059;-78
2021/10/16 02:09:40;;;;;;;9.30;5.78;;;8.10;99.90;;;;;;2001021;70;21022;-78
2021/10/16 02:12:07;;;;;;;6.53;5.60;;;8.00;99.90;;;;;;1992785;70;21152;-78
2021/10/16 02:14:33;;;;;;;8.40;6.00;;;8.10;99.90;;;;;;2007348;70;21249;-77
2021/10/16 02:16:59;;;;;;;6.72;5.50;;;8.10;99.90;;;;;;1988432;70;21115;-78
2021/10/16 02:19:25;;;;;;;9.03;5.83;;;8.10;99.90;;;;;;1994062;70;21067;-78
2021/10/16 02:21:51;;;;;;;6.47;5.72;;;8.00;99.90;;;;;;1995543;70;21142;-78
2021/10/16 02:24:17;;;;;;;7.72;5.62;;;7.90;99.90;;;;;;2000605;70;21058;-78
2021/10/16 02:26:43;;;;;;;12.70;6.03;;;8.00;99.90;;;;;;1995109;71;21470;-78
2021/10/16 02:29:09;;;;;;;10.32;6.28;;;8.10;99.90;;;;;;1988386;70;21852;-78
2021/10/16 02:31:36;;;;;;;10.18;6.03;;;8.00;99.90;;;;;;2015981;70;21540;-78
2021/10/16 02:34:02;;;;;;;6.37;5.28;;;8.10;99.90;;;;;;1996495;70;21461;-78
2021/10/16 02:36:28;;;;;;;7.35;5.67;;;8.10;99.90;;;;;;2000484;70;21015;-77
2021/10/16 02:38:54;;;;;;;9.53;5.58;;;8.10;99.90;;;;;;2003284;70;21150;-78
2021/10/16 02:41:20;;;;;;;8.95;5.53;;;8.00;99.90;;;;;;2023649;70;21042;-78
2021/10/16 02:43:46;;;;;;;11.85;6.12;;;8.00;99.90;;;;;;1997628;70;21121;-78
2021/10/16 02:46:12;;;;;;;11.05;6.08;;;7.80;99.90;;;;;;2006354;70;21105;-78
2021/10/16 02:48:38;;;;;;;10.70;6.65;;;7.80;99.90;;;;;;1998527;70;21054;-78
2021/10/16 02:51:05;;;;;;;15.08;6.20;;;7.80;99.90;;;;;;2018624;70;21206;-78
2021/10/16 02:53:31;;;;;;;5.53;5.00;;;7.80;99.90;;;;;;1988250;70;21050;-78
2021/10/16 02:55:57;;;;;;;11.08;5.67;;;7.90;99.90;;;;;;2010103;70;21451;-77
2021/10/16 02:58:23;;;;;;;10.28;6.25;;;7.80;99.90;;;;;;2014746;70;21542;-78
2021/10/16 03:00:49;;;;;;;7.58;6.08;;;7.80;99.90;;;;;;2007129;70;21471;-76
2021/10/16 03:03:15;;;;;;;8.83;5.87;;;7.80;99.90;;;;;;2005545;70;21108;-78
2021/10/16 03:05:41;;;;;;;8.00;5.87;;;7.80;99.90;;;;;;2009175;70;21027;-77
2021/10/16 03:08:07;;;;;;;7.92;6.03;;;7.80;99.90;;;;;;2004508;70;21051;-78
2021/10/16 03:10:34;;;;;;;7.67;6.00;;;7.80;99.90;;;;;;2023892;70;21054;-78
2021/10/16 03:13:00;;;;;;;12.63;6.47;;;7.80;99.90;;;;;;1989158;70;21193;-78
2021/10/16 03:15:26;;;;;;;7.87;5.30;;;7.80;99.90;;;;;;2010246;70;21124;-78
2021/10/16 03:17:52;;;;;;;9.15;6.40;;;7.90;99.90;;;;;;2005899;70;21059;-77
2021/10/16 03:20:18;;;;;;;7.95;6.03;;;7.80;99.90;;;;;;2001419;70;21038;-77
2021/10/16 03:22:44;;;;;;;11.22;5.92;;;7.80;99.90;;;;;;1985682;70;21027;-78
2021/10/16 03:25:10;;;;;;;5.78;5.12;;;7.80;99.90;;;;;;1999689;70;21047;-78
2021/10/16 03:27:36;;;;;;;11.35;6.12;;;7.80;99.90;;;;;;2000431;70;21136;-77
2021/10/16 03:30:03;;;;;;;7.30;5.65;;;7.90;99.90;;;;;;2003936;70;21038;-78
2021/10/16 03:32:29;;;;;;;7.47;5.75;;;7.90;99.90;;;;;;1990255;70;21055;-78
2021/10/16 03:34:55;;;;;;;7.97;5.62;;;7.90;99.90;;;;;;2029984;70;21101;-78
2021/10/16 03:37:21;;;;;;;9.75;5.83;;;7.80;99.90;;;;;;2013587;70;21053;-77
2021/10/16 03:39:47;;;;;;;9.18;5.80;;;8.00;99.90;;;;;;1985414;70;21042;-78
2021/10/16 03:42:13;;;;;;;9.10;6.03;;;7.90;99.90;;;;;;2002487;70;21042;-78
2021/10/16 03:44:39;;;;;;;8.00;5.95;;;7.90;99.90;;;;;;2017767;70;21206;-78
2021/10/16 03:47:05;;;;;;;9.95;5.62;;;7.90;99.90;;;;;;1993774;70;21050;-78
2021/10/16 03:49:32;;;;;;;10.55;6.08;;;7.80;99.90;;;;;;2005251;70;21099;-78
2021/10/16 03:51:58;;;;;;;8.28;5.47;;;7.80;99.90;;;;;;1989860;70;21136;-78
2021/10/16 03:54:24;;;;;;;10.35;6.15;;;7.80;99.90;;;;;;1990036;70;21527;-78
2021/10/16 03:56:50;;;;;;;7.40;5.58;;;7.90;99.90;;;;;;1995878;70;21616;-77
2021/10/16 03:59:16;;;;;;;7.40;5.75;;;7.90;99.90;;;;;;2007881;70;21543;-78
2021/10/16 04:01:42;;;;;;;6.50;5.55;;;7.80;99.90;;;;;;1988668;70;21027;-78
2021/10/16 04:04:08;;;;;;;7.33;6.20;;;7.80;99.90;;;;;;2025762;70;21177;-77
2021/10/16 04:06:34;;;;;;;12.78;6.53;;;7.70;99.90;;;;;;2002433;70;21121;-78
2021/10/16 04:09:01;;;;;;;9.00;6.62;;;7.60;99.90;;;;;;1995289;70;21140;-78
2021/10/16 04:11:27;;;;;;;10.18;6.78;;;7.60;99.90;;;;;;1992165;70;21131;-78
2021/10/16 04:13:53;;;;;;;9.28;5.97;;;7.70;99.90;;;;;;2007033;70;21027;-78
2021/10/16 04:16:19;;;;;;;8.90;6.33;;;7.70;99.90;;;;;;1987738;70;21110;-78
2021/10/16 04:18:45;;;;;;;8.80;6.03;;;7.70;99.90;;;;;;1996189;70;21054;-78
2021/10/16 04:21:11;;;;;;;12.37;6.00;;;7.70;99.90;;;;;;2000530;70;21121;-78
2021/10/16 04:23:37;;;;;;;9.10;5.97;;;7.80;99.90;;;;;;1983837;70;21054;-78
2021/10/16 04:26:03;;;;;;;7.70;6.03;;;7.70;99.90;;;;;;2002514;70;21127;-78
2021/10/16 04:28:30;;;;;;;6.15;5.40;;;7.70;99.90;;;;;;2013070;70;21071;-78
2021/10/16 04:30:56;;;;;;;8.90;5.78;;;7.80;99.90;;;;;;2021535;70;21139;-77
2021/10/16 04:33:22;;;;;;;9.63;6.20;;;7.80;99.90;;;;;;2004090;70;21477;-77
2021/10/16 04:35:48;;;;;;;11.10;5.90;;;7.70;99.90;;;;;;1983953;70;21463;-77
2021/10/16 04:38:15;;;;;;;9.05;5.95;;;7.80;99.90;;;;;;2004566;70;21194;-77
2021/10/16 04:40:41;;;;;;;13.05;5.97;;;7.90;99.90;;;;;;2015339;70;21190;-77
2021/10/16 04:43:07;;;;;;;7.67;6.28;;;7.80;99.90;;;;;;1987865;70;21027;-77
2021/10/16 04:45:33;;;;;;;11.20;5.97;;;7.70;99.90;;;;;;2001332;70;21051;-77
2021/10/16 04:47:59;;;;;;;7.10;6.10;;;7.70;99.90;;;;;;1998552;70;21098;-77
2021/10/16 04:50:25;;;;;;;9.90;6.75;;;7.70;99.90;;;;;;2000610;70;21063;-78
2021/10/16 04:52:52;;;;;;;7.00;5.80;;;7.60;99.90;;;;;;1993386;70;21106;-77
2021/10/16 04:55:21;;;;;;;10.40;6.20;;;7.70;99.90;;;;;;2009261;70;21516;-77
2021/10/16 04:57:45;;;;;;;7.90;5.78;;;7.70;99.90;;;;;;1997397;70;21155;-77
2021/10/16 05:00:12;;;;;;;9.30;6.40;;;7.70;99.90;;;;;;2012911;70;21181;-77
2021/10/16 05:02:38;;;;;;;8.03;6.22;;;7.70;99.90;;;;;;2019625;70;21507;-78
2021/10/16 05:05:04;;;;;;;6.22;5.62;;;7.70;99.90;;;;;;1989627;70;21050;-78
2021/10/16 05:07:30;;;;;;;7.78;5.87;;;7.70;99.90;;;;;;1986844;70;21046;-77
2021/10/16 05:09:57;;;;;;;10.85;6.20;;;7.70;99.90;;;;;;2001881;70;21053;-78
2021/10/16 05:12:23;;;;;;;8.40;5.92;;;7.70;99.90;;;;;;2021999;70;21066;-77
2021/10/16 05:14:49;;;;;;;9.45;6.05;;;7.70;99.90;;;;;;1999893;70;21089;-77
2021/10/16 05:17:15;;;;;;;7.00;6.05;;;7.80;99.90;;;;;;2002126;70;21055;-78
2021/10/16 05:19:41;;;;;;;14.13;6.80;;;7.70;99.90;;;;;;1990733;70;21468;-77
2021/10/16 05:22:08;;;;;;;8.75;6.62;;;7.60;99.90;;;;;;1997283;70;21540;-78
2021/10/16 05:24:35;;;;;;;9.08;6.35;;;7.50;99.90;;;;;;2018446;70;21058;-77
2021/10/16 05:27:01;;;;;;;6.75;5.83;;;7.60;99.90;;;;;;2001345;70;21064;-77
2021/10/16 05:29:27;;;;;;;7.05;5.97;;;7.60;99.90;;;;;;2006686;70;21019;-77
2021/10/16 05:31:53;;;;;;;8.25;6.47;;;7.60;99.90;;;;;;1997713;70;21059;-78
2021/10/16 05:34:19;;;;;;;13.22;6.00;;;7.50;99.90;;;;;;2001015;70;21054;-77
2021/10/16 05:36:45;;;;;;;8.50;6.40;;;7.60;99.90;;;;;;2009631;70;21054;-77
2021/10/16 05:39:11;;;;;;;9.03;6.37;;;7.70;99.90;;;;;;2001456;70;21502;-77
2021/10/16 05:41:37;;;;;;;9.45;5.67;;;7.70;99.90;;;;;;2002094;70;21451;-77
2021/10/16 05:44:03;;;;;;;8.15;5.20;;;7.80;99.90;;;;;;1991477;70;21398;-77
2021/10/16 05:46:33;;;;;;;5.87;5.20;;;7.80;99.90;;;;;;1992355;70;21897;-78
2021/10/16 05:48:57;;;;;;;7.00;5.80;;;7.90;99.90;;;;;;1993647;70;21161;-77
2021/10/16 05:51:24;;;;;;;7.37;5.85;;;7.80;99.90;;;;;;2017930;70;21059;-77
2021/10/16 05:53:50;;;;;;;9.58;6.05;;;7.90;99.90;;;;;;2004268;70;21585;-78
2021/10/16 05:56:16;;;;;;;9.10;6.25;;;7.90;99.90;;;;;;1989740;70;21411;-77
2021/10/16 05:58:42;;;;;;;8.78;6.08;;;7.90;99.90;;;;;;1994921;70;21443;-77
2021/10/16 06:01:08;;;;;;;9.20;5.75;;;7.90;99.90;;;;;;2016451;70;21422;-77
2021/10/16 06:03:34;;;;;;;7.45;5.58;;;7.90;99.90;;;;;;2002132;70;21104;-77
2021/10/16 06:06:00;;;;;;;10.03;6.60;;;7.90;99.90;;;;;;2006790;70;21059;-78
2021/10/16 06:08:26;;;;;;;7.33;6.30;;;8.00;99.90;;;;;;2014235;70;21055;-76
2021/10/16 06:10:53;;;;;;;9.60;6.03;;;7.90;99.90;;;;;;1992383;70;21034;-78
2021/10/16 06:13:19;;;;;;;9.18;6.28;;;7.80;99.90;;;;;;1987026;71;21185;-76
2021/10/16 06:15:45;;;;;;;7.95;5.97;;;7.90;99.90;;;;;;1993337;70;21124;-77
2021/10/16 06:18:12;;;;;;;7.95;5.85;;;8.10;99.90;;;;;;2004222;70;21132;-77
2021/10/16 06:20:38;;;;;;;8.70;6.17;;;8.10;99.90;;;;;;1987718;70;21119;-72
2021/10/16 06:23:04;;;;;;;6.45;5.45;;;8.10;99.90;;;;;;1988689;70;21123;-76
2021/10/16 06:25:30;;;;;;;8.08;6.12;;;8.20;99.90;;;;;;1986323;70;21028;-76
2021/10/16 06:27:56;;;;;;;8.30;5.95;;;8.30;99.90;;;;;;1987306;70;21062;-78
2021/10/16 06:30:22;;;;;;;8.45;5.62;;;8.40;99.90;;;;;;2028500;70;21090;-78
2021/10/16 06:32:49;;;;;;;13.08;6.53;;;8.30;99.90;;;;;;1993962;70;21140;-78
2021/10/16 06:35:15;;;;;;;10.03;5.55;;;8.30;99.90;;;;;;2007380;70;21030;-79
2021/10/16 06:37:41;;;;;;;11.70;6.90;;;8.30;99.90;;;;;;2021309;70;21138;-78
2021/10/16 06:40:07;;;;;;;11.25;6.70;;;8.30;99.90;;;;;;2011058;70;21041;-78
2021/10/16 06:42:33;;;;;;;12.85;6.83;;;8.30;99.90;;;;;;2003610;70;21125;-79
2021/10/16 06:44:59;;;;;;;11.08;6.22;;;8.30;99.90;;;;;;2021613;70;21136;-80
2021/10/16 06:47:25;;;;;;;10.48;6.67;;;8.30;99.90;;;;;;2023359;70;21088;-80
2021/10/16 06:49:51;;;;;;;10.65;5.85;;;8.30;99.90;;;;;;2023263;70;21024;-80
2021/10/16 06:52:18;;;;;;;18.20;7.00;;;8.40;99.90;;;;;;2016775;70;21136;-76
2021/10/16 06:54:44;;;;;;;14.40;7.55;;;8.50;99.90;;;;;;2004376;70;21059;-78
2021/10/16 06:57:10;;;;;;;12.70;6.67;;;8.50;99.90;;;;;;1992850;70;21430;-78
2021/10/16 06:59:36;;;;;;;7.45;5.42;;;8.50;99.90;;;;;;2002025;70;21446;-80
2021/10/16 07:02:02;;;;;;;10.38;6.50;;;8.60;99.90;;;;;;2021199;70;21063;-78
2021/10/16 07:04:28;;;;;;;16.05;7.50;;;8.70;99.90;;;;;;2006655;70;21133;-78
2021/10/16 07:06:54;;;;;;;6.90;5.40;;;8.70;99.90;;;;;;2002159;70;21092;-78
2021/10/16 07:09:20;;;;;;;9.95;6.53;;;8.80;99.90;;;;;;2031727;70;21108;-79
2021/10/16 07:11:47;;;;;;;8.08;5.67;;;8.80;99.90;;;;;;2021593;70;21132;-79
2021/10/16 07:14:13;;;;;;;11.28;6.45;;;8.90;99.90;;;;;;2000456;70;21067;-78
2021/10/16 07:16:39;;;;;;;8.40;5.97;;;9.00;99.90;;;;;;2021572;70;21124;-77
2021/10/16 07:19:06;;;;;;;10.40;6.10;;;9.00;99.90;;;;;;2006274;70;21127;-78
2021/10/16 07:21:32;;;;;;;12.58;6.75;;;9.10;99.90;;;;;;2011303;70;21591;-80
2021/10/16 07:23:58;;;;;;;8.10;6.45;;;9.20;99.90;;;;;;2019698;70;21536;-78
2021/10/16 07:26:24;;;;;;;11.22;6.72;;;9.20;99.90;;;;;;1994816;70;21545;-78
2021/10/16 07:28:51;;;;;;;12.03;6.83;;;9.10;99.90;;;;;;1993305;70;21168;-83
2021/10/16 07:31:18;;;;;;;8.33;5.75;;;9.20;99.90;;;;;;1992482;70;21257;-79
2021/10/16 07:33:44;;;;;;;10.85;5.78;;;9.20;99.90;;;;;;2026723;70;21067;-77
2021/10/16 07:36:10;;;;;;;9.15;6.12;;;9.10;99.90;;;;;;2000540;70;21054;-77
2021/10/16 07:38:36;;;;;;;13.38;6.00;;;9.10;99.90;;;;;;1992789;70;21058;-75
2021/10/16 07:41:02;;;;;;;12.30;6.10;;;9.10;99.90;;;;;;1990022;70;21182;-78
2021/10/16 07:43:28;;;;;;;10.88;6.30;;;9.20;99.90;;;;;;1989705;70;21171;-77
2021/10/16 07:45:54;;;;;;;11.57;6.42;;;9.20;99.90;;;;;;1996063;70;21055;-79
2021/10/16 07:48:21;;;;;;;11.70;6.12;;;9.20;99.90;;;;;;2021927;70;21062;-81
2021/10/16 07:50:49;;;;;;;9.98;6.70;;;9.20;99.90;;;;;;2021565;70;21051;-77
2021/10/16 07:53:14;;;;;;;9.88;6.35;;;9.30;99.90;;;;;;2020463;70;21090;-80
2021/10/16 07:55:41;;;;;;;11.48;5.75;;;9.40;99.90;;;;;;1999392;70;21023;-80
2021/10/16 07:58:07;;;;;;;10.70;6.08;;;9.50;99.90;;;;;;2008481;70;21113;-78
2021/10/16 08:00:33;;;;;;;6.92;5.42;;;9.60;99.90;;;;;;1997597;70;21178;-78
2021/10/16 08:02:59;;;;;;;7.55;6.12;;;9.70;99.90;;;;;;2016963;70;21051;-80
2021/10/16 08:05:25;;;;;;;11.48;6.62;;;9.70;99.90;;;;;;2009277;70;21052;-76
2021/10/16 08:07:52;;;;;;;10.88;6.40;;;9.70;99.90;;;;;;2018466;70;21020;-79
2021/10/16 08:10:18;;;;;;;8.38;6.28;;;9.70;99.90;;;;;;2006005;70;21544;-79
2021/10/16 08:12:44;;;;;;;11.18;6.35;;;9.80;99.90;;;;;;2014094;70;21608;-80
2021/10/16 08:15:11;;;;;;;9.43;6.42;;;10.00;99.90;;;;;;2010255;70;21102;-80
2021/10/16 08:17:37;;;;;;;13.55;6.58;;;10.00;99.90;;;;;;1994251;70;21233;-80
2021/10/16 08:20:03;;;;;;;10.25;6.60;;;10.10;99.90;;;;;;1984572;70;21090;-77
2021/10/16 08:22:29;;;;;;;14.20;7.70;;;10.20;99.90;;;;;;1991367;70;21058;-81
2021/10/16 08:24:56;;;;;;;11.70;7.20;;;10.40;99.90;;;;;;2001315;70;21453;-78
2021/10/16 08:27:24;;;;;;;9.88;6.70;;;10.30;99.90;;;;;;2014480;70;21054;-80
2021/10/16 08:29:52;;;;;;;13.20;5.95;;;10.20;99.90;;;;;;2003331;70;21174;-81
2021/10/16 08:32:18;;;;;;;11.48;6.30;;;10.40;99.90;;;;;;2019163;70;21137;-79
2021/10/16 08:34:44;;;;;;;12.90;6.55;;;10.60;99.90;;;;;;2021283;70;21023;-78
2021/10/16 08:37:10;;;;;;;10.58;6.17;;;10.60;99.90;;;;;;2013671;70;21197;-77
2021/10/16 08:39:36;;;;;;;13.72;7.47;;;10.60;99.90;;;;;;1995001;70;21115;-79
2021/10/16 08:42:02;;;;;;;10.78;7.10;;;10.60;99.90;;;;;;2006112;70;21084;-79
2021/10/16 08:44:28;;;;;;;9.13;6.62;;;10.60;99.90;;;;;;1993795;70;21128;-79
2021/10/16 08:46:54;;;;;;;10.03;6.37;;;10.40;99.90;;;;;;1987187;70;21062;-80
2021/10/16 08:49:21;;;;;;;9.43;6.25;;;10.40;99.90;;;;;;2007744;70;21128;-80
2021/10/16 08:51:47;;;;;;;9.80;7.47;;;10.50;99.90;;;;;;2002193;70;21027;-80
2021/10/16 08:54:13;;;;;;;12.63;6.47;;;10.60;99.90;;;;;;2001424;70;21109;-78
2021/10/16 08:56:39;;;;;;;10.98;7.17;;;10.70;99.90;;;;;;1988482;70;21115;-79
2021/10/16 08:59:05;;;;;;;10.15;7.00;;;10.70;99.90;;;;;;1982992;70;21136;-79
2021/10/16 09:01:31;;;;;;;9.80;7.10;;;10.90;99.90;;;;;;1995576;71;21015;-79
2021/10/16 09:03:58;;;;;;;8.53;6.67;;;11.10;99.90;;;;;;2012863;70;21133;-79
2021/10/16 09:06:31;;;;;;;9.03;6.75;;;11.20;99.90;;;;;;1995941;70;21119;-79
2021/10/16 09:08:53;;;;;;;13.53;6.72;;;11.20;99.90;;;;;;1986578;70;21136;-79
2021/10/16 09:11:21;;;;;;;7.72;6.87;;;11.10;99.90;;;;;;2002387;70;21549;-79
2021/10/16 09:13:47;;;;;;;9.65;7.50;;;11.10;99.90;;;;;;1993409;70;21590;-79
2021/10/16 09:16:13;;;;;;;12.35;7.05;;;11.00;99.90;;;;;;2016417;70;21031;-79
2021/10/16 09:18:39;;;;;;;20.17;8.23;;;11.00;99.90;;;;;;2005561;70;21120;-79
2021/10/16 09:21:06;;;;;;;12.40;7.55;;;11.10;99.90;;;;;;1986186;70;21046;-79
2021/10/16 09:23:32;;;;;;;11.25;8.05;;;11.20;99.90;;;;;;2001757;70;21043;-80
2021/10/16 09:25:58;;;;;;;10.55;7.28;;;11.20;99.90;;;;;;2003926;70;21308;-79
2021/10/16 09:28:25;;;;;;;15.65;7.90;;;11.30;99.90;;;;;;2017928;70;21470;-79
2021/10/16 09:30:51;;;;;;;10.20;7.25;;;11.30;99.90;;;;;;2016656;70;21469;-79
2021/10/16 09:33:19;;;;;;;10.60;7.65;;;11.40;99.90;;;;;;2022179;70;21454;-80
2021/10/16 09:35:45;;;;;;;15.18;8.93;;;11.60;99.90;;;;;;2031831;70;21183;-79
2021/10/16 09:38:11;;;;;;;11.80;7.97;;;11.80;99.90;;;;;;2027081;70;21064;-79
2021/10/16 09:40:37;;;;;;;12.15;9.25;;;11.80;99.90;;;;;;1993281;70;21050;-79
2021/10/16 09:43:03;;;;;;;15.32;8.55;;;11.90;99.90;;;;;;2014728;70;21058;-79
2021/10/16 09:45:29;;;;;;;13.05;8.98;;;12.20;99.90;;;;;;1988166;70;21062;-79
2021/10/16 09:47:55;;;;;;;13.00;9.40;;;12.40;99.90;;;;;;1991329;70;21457;-80
2021/10/16 09:50:22;;;;;;;13.68;9.18;;;12.30;99.90;;;;;;1997270;70;21117;-79
2021/10/16 09:52:50;;;;;;;20.45;8.48;;;12.40;99.90;;;;;;2009020;70;21066;-78
2021/10/16 09:55:15;;;;;;;15.20;8.85;;;12.50;99.90;;;;;;2005358;70;21475;-79
2021/10/16 09:57:42;;;;;;;13.08;8.45;;;12.80;99.90;;;;;;2002978;70;21427;-78
2021/10/16 10:00:08;;;;;;;10.28;7.92;;;12.90;99.90;;;;;;1999251;70;21466;-79
2021/10/16 10:02:34;;;;;;;25.10;9.83;;;13.00;99.90;;;;;;1999461;70;21478;-78
2021/10/16 10:05:00;;;;;;;9.93;8.05;;;13.40;99.90;;;;;;2012399;70;21472;-79
2021/10/16 10:07:26;;;;;;;14.38;8.90;;;13.60;99.90;;;;;;2012610;70;21470;-78
2021/10/16 10:09:52;;;;;;;12.18;8.63;;;13.60;99.90;;;;;;2001404;70;21131;-78
2021/10/16 10:12:18;;;;;;;15.83;9.13;;;13.90;99.90;;;;;;2027993;70;21163;-78
2021/10/16 10:14:44;;;;;;;13.43;8.68;;;14.00;99.90;;;;;;1998367;70;21058;-79
2021/10/16 10:17:11;;;;;;;13.08;10.00;;;13.80;99.90;;;;;;2010392;70;21065;-79
2021/10/16 10:19:37;;;;;;;15.28;10.28;;;13.80;99.90;;;;;;1996665;70;21037;-79
2021/10/16 10:22:03;;;;;;;19.42;10.08;;;13.80;99.90;;;;;;1990228;70;21078;-79
2021/10/16 10:24:29;;;;;;;17.82;9.43;;;13.50;99.90;;;;;;1988165;70;21058;-79
2021/10/16 10:26:55;;;;;;;12.00;9.75;;;13.70;99.90;;;;;;1984825;71;21234;-76
2021/10/16 10:29:22;;;;;;;16.73;9.65;;;13.80;99.90;;;;;;2017723;70;21105;-78
2021/10/16 10:31:48;;;;;;;18.80;10.90;;;13.80;99.90;;;;;;1989395;70;21477;-77
2021/10/16 10:34:14;;;;;;;13.50;10.38;;;13.80;99.90;;;;;;1957839;71;21050;-77
2021/10/16 10:36:40;;;;;;;14.30;10.30;;;14.00;99.90;;;;;;2011253;70;21168;-77
2021/10/16 10:39:06;;;;;;;16.90;10.32;;;14.10;99.90;;;;;;2008824;70;21202;-78
2021/10/16 10:41:35;;;;;;;16.00;10.53;;;14.00;99.90;;;;;;2000348;70;21160;-77
2021/10/16 10:44:02;;;;;;;16.90;10.03;;;14.30;99.90;;;;;;2005087;70;21160;-78
2021/10/16 10:46:30;;;;;;;12.20;10.30;;;13.90;99.90;;;;;;2010912;70;21124;-79
2021/10/16 10:48:56;;;;;;;16.87;10.80;;;14.20;99.90;;;;;;2027838;70;21084;-78
2021/10/16 10:51:25;;;;;;;14.83;10.50;;;14.50;99.90;;;;;;2017627;70;21259;-79
2021/10/16 10:53:52;;;;;;;21.57;10.65;;;14.60;99.90;;;;;;1991385;70;21092;-78
2021/10/16 10:56:22;;;;;;;12.10;10.03;;;14.70;99.90;;;;;;2002251;70;21112;-78
2021/10/16 10:58:48;;;;;;;14.05;10.70;;;14.80;99.90;;;;;;2006202;70;21070;-79
2021/10/16 11:01:15;;;;;;;15.83;11.50;;;14.90;99.90;;;;;;1968141;70;21442;-77
2021/10/16 11:03:43;;;;;;;16.50;11.10;;;14.90;99.90;;;;;;2027438;70;21424;-78
2021/10/16 11:06:09;;;;;;;14.70;10.28;;;14.80;99.90;;;;;;1997057;70;21050;-77
2021/10/16 11:08:38;;;;;;;16.30;10.72;;;15.00;99.90;;;;;;1997332;70;21108;-77
2021/10/16 11:11:04;;;;;;;12.15;9.73;;;15.60;99.90;;;;;;2014079;70;21066;-80
2021/10/16 11:13:30;;;;;;;15.68;10.65;;;16.10;99.90;;;;;;1990168;70;21169;-78
2021/10/16 11:15:57;;;;;;;16.27;10.53;;;16.50;99.90;;;;;;2027570;70;21019;-79
2021/10/16 11:18:23;;;;;;;17.32;9.85;;;16.60;99.90;;;;;;2008954;70;22920;-77
2021/10/16 11:20:50;;;;;;;14.13;9.65;;;16.50;99.90;;;;;;1994572;70;21612;-81
2021/10/16 11:23:16;;;;;;;13.55;8.75;;;16.90;99.90;;;;;;1993261;70;21042;-79
2021/10/16 11:25:42;;;;;;;11.95;8.43;;;16.40;99.90;;;;;;2002622;70;21054;-78
2021/10/16 11:28:08;;;;;;;11.48;7.67;;;15.80;99.90;;;;;;2018766;70;21128;-77
2021/10/16 11:30:35;;;;;;;12.25;7.60;;;15.90;99.90;;;;;;1990436;70;21079;-80
2021/10/16 11:33:01;;;;;;;10.30;6.95;;;15.80;99.90;;;;;;2013501;70;21123;-80
2021/10/16 11:35:27;;;;;;;8.83;7.78;;;15.80;99.90;;;;;;1998957;70;21105;-73
2021/10/16 11:37:53;;;;;;;19.27;8.63;;;15.50;99.90;;;;;;2000870;70;21046;-82
2021/10/16 11:40:19;;;;;;;9.70;7.83;;;15.00;99.90;;;;;;2015490;70;21134;-80
2021/10/16 11:42:45;;;;;;;13.05;8.88;;;14.50;99.90;;;;;;2003089;70;21136;-82
2021/10/16 11:45:11;;;;;;;9.70;8.53;;;14.60;99.90;;;;;;2024560;70;21060;-83
2021/10/16 11:47:38;;;;;;;10.90;7.55;;;14.70;99.90;;;;;;1990893;70;21084;-82
2021/10/16 11:50:04;;;;;;;10.05;7.83;;;15.10;99.90;;;;;;2007812;70;21125;-83
2021/10/16 11:52:30;;;;;;;9.53;7.53;;;15.70;99.90;;;;;;2023094;70;21051;-84
2021/10/16 11:54:56;;;;;;;10.72;7.50;;;15.60;99.90;;;;;;1995073;70;21478;-83
2021/10/16 11:57:22;;;;;;;14.78;7.22;;;16.00;99.90;;;;;;2015622;70;21214;-85
2021/10/16 11:59:48;;;;;;;8.35;5.85;;;17.30;99.90;;;;;;2006765;70;21118;-84
2021/10/16 12:02:14;;;;;;;11.60;6.80;;;18.40;99.90;;;;;;1998811;70;21098;-84
2021/10/16 12:04:40;;;;;;;8.58;6.20;;;19.10;99.90;;;;;;1993889;70;21072;-86
2021/10/16 12:07:06;;;;;;;8.53;6.15;;;19.20;99.90;;;;;;1983905;70;21499;-82
2021/10/16 12:09:33;;;;;;;9.45;6.80;;;19.40;99.90;;;;;;1981494;70;21439;-83
2021/10/16 12:12:00;;;;;;;8.90;6.55;;;19.50;99.90;;;;;;1981963;70;21516;-85
2021/10/16 12:14:26;;;;;;;10.48;7.15;;;19.10;99.90;;;;;;2015519;70;21176;-83
2021/10/16 12:16:52;;;;;;;11.35;7.22;;;18.90;99.90;;;;;;1993162;70;21281;-83
2021/10/16 12:19:18;;;;;;;9.05;7.05;;;19.10;99.90;;;;;;1989240;70;21110;-82
2021/10/16 12:21:44;;;;;;;7.67;6.87;;;18.70;99.90;;;;;;2014009;70;21048;-82
2021/10/16 12:24:15;;;;;;;10.32;6.22;;;18.90;99.90;;;;;;2004443;70;21110;-84
2021/10/16 12:26:38;;;;;;;10.68;5.75;;;19.60;99.90;;;;;;2002336;70;21098;-84
2021/10/16 12:29:04;;;;;;;9.23;5.83;;;20.50;99.90;;;;;;2002342;70;21178;-79
2021/10/16 12:31:30;;;;;;;9.58;6.10;;;20.40;99.90;;;;;;1994442;70;21086;-81
2021/10/16 12:33:56;;;;;;;8.48;6.20;;;20.00;99.90;;;;;;2023066;70;21058;-79
2021/10/16 12:36:23;;;;;;;11.88;6.17;;;19.70;99.90;;;;;;2010201;70;21047;-81
2021/10/16 12:38:49;;;;;;;9.58;6.05;;;19.20;99.90;;;;;;2003558;70;21170;-79
2021/10/16 12:41:15;;;;;;;10.15;5.85;;;19.80;99.90;;;;;;1997084;70;21120;-84